Time;durP1;ratioP1;P1;durP2;ratioP2;P2;SDS_P1;SDS_P2;PMS_P1;PMS_P2;Temp;Humidity;BMP_temperature;BMP_pressure;BME280_temperature;BME280_humidity;BME280_pressure;Samples;Min_cycle;Max_cycle;Signal;HPM_P1;HPM_P2
2022/07/22 00:00:57;;;;;;;8.82;4.80;;;19.30;90.40;;;;;;10169978;29;20044;-80
2022/07/22 00:05:58;;;;;;;8.93;4.15;;;19.30;90.50;;;;;;10166908;29;20039;-80
2022/07/22 00:10:58;;;;;;;7.80;4.85;;;19.30;90.30;;;;;;10169322;29;20043;-81
2022/07/22 00:15:59;;;;;;;14.25;5.03;;;19.10;90.80;;;;;;10169098;29;20048;-82
2022/07/22 00:20:59;;;;;;;12.30;4.90;;;19.10;90.60;;;;;;10169152;29;20040;-81
2022/07/22 00:26:00;;;;;;;10.70;5.30;;;19.30;91.00;;;;;;10160272;29;20107;-83
2022/07/22 00:31:01;;;;;;;10.60;5.15;;;19.30;90.90;;;;;;10168707;29;20408;-83
2022/07/22 00:36:01;;;;;;;8.65;5.30;;;19.40;90.70;;;;;;10169346;29;20509;-83
2022/07/22 00:41:02;;;;;;;10.98;5.60;;;19.30;91.10;;;;;;10169136;29;20048;-85
2022/07/22 00:46:02;;;;;;;9.88;4.65;;;19.20;91.10;;;;;;10168016;29;20100;-84
2022/07/22 00:51:03;;;;;;;11.30;4.70;;;19.20;91.30;;;;;;10167545;29;20433;-81
2022/07/22 00:56:04;;;;;;;8.63;5.22;;;19.20;91.10;;;;;;10167970;29;20068;-82
2022/07/22 01:01:05;;;;;;;11.20;5.43;;;19.30;91.70;;;;;;10166090;29;20048;-82
2022/07/22 01:06:06;;;;;;;10.45;5.18;;;19.20;91.80;;;;;;10150589;29;20099;-82
2022/07/22 01:11:13;;;;;;;204.13;20.98;;;19.00;92.40;;;;;;10150575;29;20036;-83
2022/07/22 01:16:15;;;;;;;7.60;3.40;;;18.70;93.30;;;;;;10167287;29;20420;-81
2022/07/22 01:21:16;;;;;;;20.83;3.72;;;18.50;93.40;;;;;;10166987;29;20393;-82
2022/07/22 01:26:17;;;;;;;223.93;61.20;;;18.40;94.20;;;;;;10167309;29;20040;-82
2022/07/22 01:31:17;;;;;;;21.17;7.88;;;18.60;95.40;;;;;;10165570;29;20123;-82
2022/07/22 01:36:18;;;;;;;71.38;29.27;;;18.50;96.00;;;;;;10167230;29;20063;-82
2022/07/22 01:41:19;;;;;;;205.32;59.25;;;18.50;97.10;;;;;;10167154;29;20043;-82
2022/07/22 01:46:19;;;;;;;13.68;4.78;;;18.40;98.40;;;;;;10166305;29;20048;-82
2022/07/22 01:51:20;;;;;;;1065.47;560.70;;;18.40;98.70;;;;;;10165987;29;20128;-82
2022/07/22 01:56:20;;;;;;;50.20;9.27;;;18.50;99.80;;;;;;10166436;29;20062;-80
2022/07/22 02:01:21;;;;;;;8.88;5.20;;;18.40;99.90;;;;;;10166247;29;20044;-81
2022/07/22 02:06:22;;;;;;;10.02;5.07;;;18.40;99.90;;;;;;10166117;29;20601;-82
2022/07/22 02:11:22;;;;;;;10.30;6.28;;;18.30;99.90;;;;;;10163885;29;20060;-81
2022/07/22 02:16:23;;;;;;;0.30;0.22;;;18.20;99.90;;;;;;10164516;29;20508;-82
2022/07/22 02:21:23;;;;;;;10.48;6.03;;;18.10;99.90;;;;;;10165311;29;20069;-82
2022/07/22 02:26:24;;;;;;;244.63;150.60;;;18.00;99.90;;;;;;10165253;29;20043;-83
2022/07/22 02:31:25;;;;;;;9.32;5.80;;;17.90;99.90;;;;;;10163242;29;20052;-84
2022/07/22 02:36:25;;;;;;;14.48;7.72;;;17.80;99.90;;;;;;10163988;29;20560;-81
2022/07/22 02:41:26;;;;;;;16.92;6.55;;;17.80;99.90;;;;;;10165000;29;20378;-82
2022/07/22 02:46:30;;;;;;;11.93;5.25;;;17.70;99.90;;;;;;10163765;29;20044;-81
2022/07/22 02:51:31;;;;;;;11.82;5.38;;;17.70;99.90;;;;;;10164810;29;20040;-83
2022/07/22 02:56:31;;;;;;;11.13;6.40;;;17.70;99.90;;;;;;10163041;29;20448;-80
2022/07/22 03:01:32;;;;;;;10.95;5.30;;;17.80;99.90;;;;;;10163728;29;20040;-81
2022/07/22 03:06:33;;;;;;;9.02;5.70;;;17.70;99.90;;;;;;10163885;29;20040;-84
2022/07/22 03:11:33;;;;;;;11.13;6.43;;;17.60;99.90;;;;;;10164994;29;20773;-82
2022/07/22 03:16:34;;;;;;;12.48;6.32;;;17.50;99.90;;;;;;10139977;29;20048;-83
2022/07/22 03:21:34;;;;;;;11.93;7.72;;;17.60;99.90;;;;;;10140757;29;20051;-83
2022/07/22 03:26:35;;;;;;;12.93;7.10;;;17.60;99.90;;;;;;10165695;29;20040;-81
2022/07/22 03:31:36;;;;;;;11.30;7.00;;;17.90;99.90;;;;;;10168707;29;20181;-80
2022/07/22 03:36:36;;;;;;;15.77;7.82;;;18.10;99.90;;;;;;10170492;29;20047;-82
2022/07/22 03:41:37;;;;;;;11.50;7.18;;;18.30;99.90;;;;;;10166014;23;20710;-82
2022/07/22 03:46:37;;;;;;;15.02;7.30;;;18.40;99.90;;;;;;10138447;29;20095;-82
2022/07/22 03:51:38;;;;;;;12.30;7.03;;;18.50;99.90;;;;;;10131864;29;20044;-82
2022/07/22 03:56:39;;;;;;;14.05;8.90;;;18.70;99.90;;;;;;10138544;29;20052;-82
2022/07/22 04:01:40;;;;;;;15.15;8.88;;;18.80;99.90;;;;;;10140354;29;20066;-83
2022/07/22 04:06:40;;;;;;;13.65;9.23;;;19.00;99.90;;;;;;10132278;29;20609;-82
2022/07/22 04:11:41;;;;;;;13.40;8.45;;;19.20;99.90;;;;;;10131749;29;20536;-81
2022/07/22 04:16:43;;;;;;;15.27;9.20;;;19.40;99.90;;;;;;10142732;29;20048;-82
2022/07/22 04:21:44;;;;;;;12.82;8.88;;;19.60;99.90;;;;;;10165798;29;20475;-80
2022/07/22 04:26:44;;;;;;;14.27;8.93;;;19.90;99.90;;;;;;10160825;29;20036;-82
2022/07/22 04:31:45;;;;;;;14.63;9.13;;;20.10;99.90;;;;;;10168873;29;20044;-83
2022/07/22 04:36:45;;;;;;;11.13;8.55;;;20.30;99.90;;;;;;10166980;29;20139;-83
2022/07/22 04:41:46;;;;;;;14.73;9.85;;;20.60;99.90;;;;;;10165072;29;20067;-85
2022/07/22 04:46:47;;;;;;;12.27;7.93;;;20.80;99.90;;;;;;10163782;29;20028;-84
2022/07/22 04:51:47;;;;;;;13.40;9.50;;;21.00;99.90;;;;;;10169330;29;20039;-83
2022/07/22 04:56:48;;;;;;;14.40;9.40;;;21.10;99.90;;;;;;10167759;29;20040;-85
2022/07/22 05:01:48;;;;;;;16.75;9.25;;;21.10;99.90;;;;;;10169361;29;20512;-85
2022/07/22 05:06:49;;;;;;;14.68;9.63;;;21.20;99.90;;;;;;10151888;29;20040;-84
2022/07/22 05:11:50;;;;;;;13.63;9.23;;;21.20;99.90;;;;;;10168578;29;20452;-85
2022/07/22 05:16:50;;;;;;;13.32;9.25;;;21.20;99.90;;;;;;10167940;29;20056;-84
2022/07/22 05:21:51;;;;;;;12.65;8.98;;;21.20;99.90;;;;;;10168758;29;20048;-83
2022/07/22 05:26:51;;;;;;;12.30;8.77;;;21.30;99.90;;;;;;10167902;29;20492;-84
2022/07/22 05:31:52;;;;;;;13.10;8.57;;;21.50;99.90;;;;;;10168154;29;20179;-85
2022/07/22 05:36:53;;;;;;;10.00;7.82;;;22.00;99.90;;;;;;10167931;29;20099;-86
2022/07/22 05:41:53;;;;;;;13.98;8.70;;;22.40;99.90;;;;;;10161650;29;20067;-84
2022/07/22 05:46:54;;;;;;;12.15;8.73;;;22.90;99.80;;;;;;10166987;29;20039;-84
2022/07/22 05:51:57;;;;;;;11.30;8.57;;;23.20;98.70;;;;;;10160205;29;20047;-85
2022/07/22 05:56:58;;;;;;;12.30;9.00;;;23.40;96.70;;;;;;10161636;29;20046;-85
2022/07/22 06:01:59;;;;;;;11.98;9.20;;;23.70;96.00;;;;;;10162360;29;20041;-85
2022/07/22 06:06:59;;;;;;;13.07;9.30;;;24.00;95.10;;;;;;10141950;29;20040;-86
2022/07/22 06:12:00;;;;;;;12.82;10.00;;;24.30;93.90;;;;;;10147292;29;20077;-86
2022/07/22 06:17:01;;;;;;;12.23;9.00;;;24.30;93.10;;;;;;10146132;29;20052;-85
2022/07/22 06:22:01;;;;;;;13.57;9.35;;;24.40;92.80;;;;;;10163537;29;20115;-86
2022/07/22 06:27:02;;;;;;;14.18;9.82;;;24.50;92.50;;;;;;10154549;29;20036;-86
2022/07/22 06:32:03;;;;;;;22.40;10.82;;;24.70;92.10;;;;;;10133662;29;20044;-85
2022/07/22 06:37:05;;;;;;;13.30;10.07;;;24.90;91.50;;;;;;10137185;29;20079;-85
2022/07/22 06:42:05;;;;;;;14.93;9.90;;;24.90;91.40;;;;;;10156545;29;20084;-85
2022/07/22 06:47:06;;;;;;;19.33;10.65;;;24.90;91.10;;;;;;10137656;29;20127;-84
2022/07/22 06:52:22;;;;;;;16.00;9.93;;;25.00;92.20;;;;;;10141915;29;20062;-84
2022/07/22 06:57:22;;;;;;;15.82;10.82;;;25.20;91.20;;;;;;10144466;29;20049;-84
2022/07/22 07:02:23;;;;;;;12.07;9.57;;;25.00;90.60;;;;;;10152705;29;20084;-84
2022/07/22 07:07:23;;;;;;;13.00;9.55;;;24.90;91.10;;;;;;10141052;29;20412;-84
2022/07/22 07:12:44;;;;;;;17.25;10.52;;;25.10;91.30;;;;;;10163674;29;20397;-84
2022/07/22 07:18:25;;;;;;;15.00;9.45;;;25.50;91.40;;;;;;10163908;29;20079;-85
2022/07/22 07:23:26;;;;;;;12.68;8.90;;;26.30;90.70;;;;;;10142069;29;20041;-85
2022/07/22 07:28:39;;;;;;;9.70;8.70;;;26.20;89.50;;;;;;10162350;29;20059;-85
2022/07/22 07:33:39;;;;;;;11.73;8.32;;;26.10;89.80;;;;;;10144192;29;20393;-84
2022/07/22 07:38:41;;;;;;;11.32;8.63;;;25.90;90.40;;;;;;10130902;29;20055;-86
2022/07/22 07:43:41;;;;;;;13.23;8.65;;;25.90;90.10;;;;;;10140216;29;20085;-84
2022/07/22 07:48:42;;;;;;;12.02;8.98;;;26.00;90.60;;;;;;10139625;29;20126;-86
2022/07/22 07:53:42;;;;;;;11.25;9.07;;;26.90;89.80;;;;;;10126289;29;20037;-86
2022/07/22 07:58:43;;;;;;;14.77;8.93;;;27.30;87.10;;;;;;10139913;29;20059;-86
2022/07/22 08:03:45;;;;;;;12.13;9.07;;;27.50;84.50;;;;;;10139920;29;20056;-87
2022/07/22 08:08:45;;;;;;;11.77;8.68;;;27.60;85.60;;;;;;10122753;29;20041;-85
2022/07/22 08:13:46;;;;;;;12.20;8.57;;;28.00;84.70;;;;;;10143708;29;20124;-87
2022/07/22 08:18:47;;;;;;;10.00;8.48;;;27.70;82.80;;;;;;10149005;29;20048;-86
2022/07/22 08:23:47;;;;;;;13.85;9.20;;;27.90;82.80;;;;;;10144580;29;20055;-85
2022/07/22 08:28:48;;;;;;;9.35;7.32;;;28.40;81.80;;;;;;10161200;29;20187;-84
2022/07/22 08:33:49;;;;;;;10.27;8.13;;;28.70;78.60;;;;;;10159351;29;20032;-85
2022/07/22 08:38:50;;;;;;;11.23;7.90;;;29.00;80.60;;;;;;10166010;29;20052;-85
2022/07/22 08:43:51;;;;;;;12.63;8.70;;;29.20;76.90;;;;;;10168532;29;20059;-85
2022/07/22 08:48:54;;;;;;;10.23;7.93;;;29.40;78.00;;;;;;10149267;29;20362;-85
2022/07/22 08:53:55;;;;;;;10.93;7.72;;;29.60;77.70;;;;;;10169090;29;20100;-85
2022/07/22 08:58:56;;;;;;;7.85;7.03;;;29.90;77.00;;;;;;10151449;29;20059;-85
2022/07/22 09:03:57;;;;;;;10.48;8.20;;;29.90;76.20;;;;;;10154201;29;20039;-84
2022/07/22 09:09:00;;;;;;;10.13;8.13;;;30.20;77.70;;;;;;10149322;29;20444;-86
2022/07/22 09:19:59;;;;;;;13.00;8.20;;;30.60;75.80;;;;;;10140737;29;20461;-86
2022/07/22 09:37:00;;;;;;;8.90;7.75;;;31.00;71.60;;;;;;10368203;23;20060;-85
2022/07/22 09:42:03;;;;;;;9.40;7.50;;;31.00;72.00;;;;;;10150928;29;20037;-84
2022/07/22 09:47:04;;;;;;;9.90;7.93;;;31.00;72.10;;;;;;10159850;29;20172;-85
2022/07/22 09:52:05;;;;;;;10.57;8.32;;;31.10;75.80;;;;;;10156657;29;20032;-85
2022/07/22 09:57:21;;;;;;;12.48;8.27;;;31.60;71.70;;;;;;10160969;29;20529;-85
2022/07/22 10:02:22;;;;;;;11.13;8.30;;;31.90;71.10;;;;;;10151702;29;20032;-85
2022/07/22 10:07:26;;;;;;;9.90;8.15;;;32.20;68.70;;;;;;10162406;29;20048;-85
2022/07/22 10:25:01;;;;;;;12.02;7.43;;;32.00;70.10;;;;;;11121095;23;20704;-85
2022/07/22 10:30:04;;;;;;;9.25;7.35;;;31.70;69.10;;;;;;10145906;29;20084;-85
2022/07/22 10:35:11;;;;;;;12.07;7.55;;;31.80;68.90;;;;;;10135177;29;20040;-83
2022/07/22 10:40:12;;;;;;;10.07;7.30;;;31.70;69.60;;;;;;10128723;29;20115;-85
2022/07/22 10:45:13;;;;;;;8.65;7.40;;;31.70;69.60;;;;;;10134391;29;20119;-84
2022/07/22 10:50:43;;;;;;;10.30;7.47;;;31.90;70.10;;;;;;10133588;29;20488;-85
2022/07/22 10:56:02;;;;;;;10.65;7.13;;;32.30;69.80;;;;;;10126740;29;20048;-84
2022/07/22 11:01:29;;;;;;;8.70;6.88;;;32.50;67.50;;;;;;10129076;29;20047;-84
2022/07/22 11:12:26;;;;;;;7.80;7.00;;;32.30;66.20;;;;;;10133968;29;20036;-83
2022/07/22 11:17:27;;;;;;;8.35;6.05;;;31.90;66.70;;;;;;10127374;29;20045;-85
2022/07/22 11:22:28;;;;;;;7.43;6.20;;;31.90;67.90;;;;;;10127808;29;20793;-83
2022/07/22 11:27:28;;;;;;;9.00;6.15;;;32.00;66.60;;;;;;10131963;29;20040;-85
2022/07/22 11:32:31;;;;;;;8.25;6.10;;;32.10;64.80;;;;;;10125068;29;20052;-83
2022/07/22 11:37:31;;;;;;;7.22;6.03;;;31.60;64.60;;;;;;10128865;29;20412;-85
2022/07/22 11:42:32;;;;;;;9.13;6.82;;;31.40;66.50;;;;;;10130040;29;20044;-84
2022/07/22 11:47:33;;;;;;;9.25;7.00;;;31.90;68.00;;;;;;10128390;29;20028;-84
2022/07/22 11:52:33;;;;;;;10.35;7.35;;;32.50;66.30;;;;;;10148686;29;20044;-84
2022/07/22 11:57:46;;;;;;;8.98;7.28;;;32.60;67.60;;;;;;10149820;29;20180;-84
2022/07/22 12:02:47;;;;;;;9.18;6.57;;;32.90;65.10;;;;;;10150547;29;20052;-84
2022/07/22 12:07:47;;;;;;;7.97;6.90;;;33.10;64.90;;;;;;10160516;29;20489;-84
2022/07/22 12:12:48;;;;;;;7.75;6.93;;;33.50;63.10;;;;;;10136923;29;20032;-84
2022/07/22 12:17:48;;;;;;;7.22;6.28;;;33.50;64.70;;;;;;10144214;29;20127;-84
2022/07/22 12:22:50;;;;;;;12.77;7.22;;;33.40;63.50;;;;;;10148666;29;20095;-84
2022/07/22 12:28:01;;;;;;;8.85;6.28;;;33.30;60.70;;;;;;10134275;29;20544;-85
2022/07/22 12:33:02;;;;;;;9.18;6.55;;;33.00;62.20;;;;;;10130441;29;20071;-83
2022/07/22 12:38:07;;;;;;;8.40;6.68;;;33.20;63.40;;;;;;10142591;29;20381;-84
2022/07/22 12:43:09;;;;;;;8.98;5.88;;;33.30;63.20;;;;;;10138096;29;20068;-85
2022/07/22 12:48:10;;;;;;;9.20;6.32;;;33.50;63.10;;;;;;10134876;29;20580;-84
2022/07/22 15:47:44;;;;;;;7.28;6.05;;;30.00;63.60;;;;;;10460272;28;21026;-86
2022/07/22 15:52:44;;;;;;;8.30;6.07;;;29.90;66.00;;;;;;10416726;28;20029;-86
2022/07/22 16:03:04;;;;;;;9.35;6.80;;;30.00;65.90;;;;;;10435846;28;20034;-85
2022/07/22 16:08:05;;;;;;;7.65;5.82;;;30.00;65.80;;;;;;10421428;28;20033;-86
2022/07/22 16:13:05;;;;;;;7.57;5.95;;;30.00;65.20;;;;;;10426816;28;20116;-85
2022/07/22 16:18:06;;;;;;;7.45;6.25;;;30.00;64.70;;;;;;10438702;28;20037;-87
2022/07/22 16:23:07;;;;;;;10.07;6.65;;;30.00;64.60;;;;;;10427461;28;20025;-85
2022/07/22 16:28:07;;;;;;;7.18;6.43;;;30.00;65.20;;;;;;10415202;28;20038;-83
2022/07/22 16:33:08;;;;;;;8.23;6.88;;;29.90;64.00;;;;;;10435566;28;20041;-84
2022/07/22 16:38:09;;;;;;;8.07;6.30;;;29.90;66.10;;;;;;10426566;28;20044;-87
2022/07/22 16:43:09;;;;;;;9.40;6.68;;;29.90;64.70;;;;;;10422820;28;20053;-84
2022/07/22 16:48:10;;;;;;;8.35;6.47;;;29.70;69.10;;;;;;10425556;28;20025;-85
2022/07/22 16:53:10;;;;;;;7.90;5.88;;;29.40;69.90;;;;;;10407235;28;20037;-85
2022/07/22 16:58:11;;;;;;;8.60;6.78;;;29.30;67.90;;;;;;10387993;28;20085;-85
2022/07/22 17:03:11;;;;;;;8.40;7.28;;;29.20;70.10;;;;;;10411003;28;20036;-85
2022/07/22 17:08:12;;;;;;;7.47;6.18;;;28.90;72.00;;;;;;10387444;28;20029;-86
2022/07/22 17:13:12;;;;;;;7.80;6.60;;;28.60;72.90;;;;;;10397949;28;20084;-85
2022/07/22 17:18:13;;;;;;;9.32;7.10;;;28.40;73.10;;;;;;10393775;28;20045;-84
2022/07/22 17:23:14;;;;;;;7.55;6.32;;;28.10;74.10;;;;;;10394472;28;20022;-84
2022/07/22 17:28:14;;;;;;;8.18;6.80;;;27.90;75.00;;;;;;10387953;28;20030;-85
2022/07/22 17:33:15;;;;;;;9.95;7.40;;;27.70;75.30;;;;;;10390779;28;20040;-85
2022/07/22 17:38:16;;;;;;;12.65;7.53;;;27.40;75.80;;;;;;10386083;28;20030;-86
2022/07/22 17:43:16;;;;;;;9.15;7.07;;;27.10;76.50;;;;;;10391468;28;20049;-85
2022/07/22 17:48:17;;;;;;;8.18;7.32;;;26.90;77.70;;;;;;10400015;28;20033;-86
2022/07/22 17:53:18;;;;;;;7.78;7.00;;;26.60;77.30;;;;;;10385098;28;20692;-86
2022/07/22 17:58:18;;;;;;;9.50;7.40;;;26.50;78.00;;;;;;10391486;28;20033;-86
2022/07/22 18:03:19;;;;;;;9.50;6.93;;;26.30;79.40;;;;;;10399109;28;20087;-86
2022/07/22 18:08:20;;;;;;;7.63;6.82;;;26.10;79.40;;;;;;10407610;28;20029;-87
2022/07/22 18:13:21;;;;;;;8.55;6.65;;;25.90;80.10;;;;;;10396933;28;20034;-87
2022/07/22 18:18:23;;;;;;;10.10;6.88;;;25.50;79.80;;;;;;10402641;28;20396;-85
2022/07/22 18:23:24;;;;;;;9.57;6.85;;;25.30;79.50;;;;;;10390628;28;20128;-86
2022/07/22 18:28:25;;;;;;;7.82;6.55;;;25.00;79.90;;;;;;10401175;28;20588;-86
2022/07/22 18:33:26;;;;;;;7.57;6.65;;;24.80;80.10;;;;;;10393265;28;20701;-85
2022/07/22 18:38:27;;;;;;;10.85;7.18;;;24.50;80.30;;;;;;10377639;28;20034;-87
2022/07/22 18:43:28;;;;;;;10.55;6.82;;;24.20;79.80;;;;;;10386195;28;20059;-87
2022/07/22 18:48:28;;;;;;;8.18;6.80;;;24.10;80.20;;;;;;10385461;28;20020;-87
2022/07/22 18:53:29;;;;;;;8.38;6.53;;;24.00;80.60;;;;;;10366738;28;20041;-90
2022/07/22 18:58:37;;;;;;;10.07;6.50;;;23.90;81.40;;;;;;10379207;28;20108;-88
2022/07/22 19:03:37;;;;;;;7.57;6.68;;;23.80;82.00;;;;;;10371220;28;20491;-86
2022/07/22 19:09:28;;;;;;;10.13;6.85;;;23.70;81.80;;;;;;10363440;28;20157;-87
2022/07/22 19:20:26;;;;;;;11.27;7.85;;;23.50;82.10;;;;;;10379887;28;20049;-85
2022/07/22 19:25:27;;;;;;;8.80;6.75;;;23.40;81.70;;;;;;10382469;28;20087;-86
2022/07/22 19:30:27;;;;;;;8.05;6.43;;;23.40;81.00;;;;;;10388048;28;20026;-86
2022/07/22 19:35:28;;;;;;;9.82;6.40;;;23.40;81.40;;;;;;10392414;28;20042;-86
2022/07/22 19:40:30;;;;;;;9.45;7.22;;;23.40;82.00;;;;;;10368144;28;20101;-88
2022/07/22 19:45:30;;;;;;;9.63;7.55;;;23.20;82.30;;;;;;10390815;28;20312;-84
2022/07/22 19:50:33;;;;;;;9.50;7.07;;;23.00;82.80;;;;;;10373797;28;20576;-83
2022/07/22 19:55:34;;;;;;;8.82;7.20;;;22.80;83.10;;;;;;10375841;28;20100;-85
2022/07/22 20:00:34;;;;;;;14.82;8.18;;;22.80;82.80;;;;;;10380490;28;20026;-84
2022/07/22 20:05:35;;;;;;;8.95;6.88;;;22.70;83.50;;;;;;10376523;28;20085;-85
2022/07/22 20:10:36;;;;;;;9.75;7.82;;;22.60;84.00;;;;;;10365892;28;20030;-88
2022/07/22 20:15:36;;;;;;;12.25;8.10;;;22.50;84.20;;;;;;10385690;28;20120;-85
2022/07/22 20:20:38;;;;;;;9.93;7.38;;;22.40;84.70;;;;;;10380373;28;20022;-85
2022/07/22 20:25:38;;;;;;;9.10;7.50;;;22.30;85.00;;;;;;10378521;28;20026;-84
2022/07/22 20:30:39;;;;;;;10.18;7.38;;;22.20;85.40;;;;;;10382581;28;20025;-87
2022/07/22 20:35:40;;;;;;;9.10;7.82;;;22.10;86.10;;;;;;10389725;28;20626;-88
2022/07/22 20:40:41;;;;;;;12.55;7.68;;;22.10;86.80;;;;;;10394891;28;20033;-87
2022/07/22 20:45:42;;;;;;;12.73;7.78;;;22.00;87.30;;;;;;10392234;28;20057;-87
2022/07/22 20:50:42;;;;;;;11.05;8.23;;;22.00;87.30;;;;;;10392583;28;20116;-88
2022/07/22 20:55:43;;;;;;;14.07;7.75;;;21.90;87.40;;;;;;10383281;28;20052;-86
2022/07/22 21:00:44;;;;;;;12.68;8.38;;;21.80;88.00;;;;;;10384397;28;20108;-86
2022/07/22 21:05:45;;;;;;;9.13;7.72;;;21.70;88.20;;;;;;10396066;28;20110;-86
2022/07/22 21:10:45;;;;;;;9.25;6.80;;;21.60;88.10;;;;;;10400371;28;20022;-85
2022/07/22 21:15:46;;;;;;;11.82;8.48;;;21.50;88.20;;;;;;10404739;28;20034;-86
2022/07/22 21:20:47;;;;;;;9.45;7.22;;;21.40;88.60;;;;;;10402959;28;20108;-86
2022/07/22 21:25:47;;;;;;;10.52;7.20;;;21.30;88.30;;;;;;10389744;28;20026;-86
2022/07/22 21:30:48;;;;;;;11.43;7.15;;;21.20;88.40;;;;;;10386418;28;20060;-85
2022/07/22 21:35:48;;;;;;;8.40;6.80;;;21.10;89.10;;;;;;10387060;28;20250;-87
2022/07/22 21:40:50;;;;;;;10.23;7.13;;;21.10;89.10;;;;;;10384278;28;20389;-86
2022/07/22 21:45:51;;;;;;;11.00;7.13;;;20.90;89.40;;;;;;10392252;28;20567;-85
2022/07/22 21:50:52;;;;;;;9.73;7.47;;;20.90;89.60;;;;;;10394425;28;20022;-84
2022/07/22 22:01:13;;;;;;;8.50;7.22;;;20.70;90.10;;;;;;10393694;28;20499;-85
2022/07/22 22:06:14;;;;;;;10.98;7.65;;;20.60;90.20;;;;;;10391066;28;20392;-86
2022/07/22 22:11:14;;;;;;;8.65;6.63;;;20.60;90.10;;;;;;10386461;28;20034;-87
2022/07/22 22:16:15;;;;;;;14.43;7.75;;;20.60;90.30;;;;;;10390991;28;20043;-86
2022/07/22 22:21:15;;;;;;;9.77;7.35;;;20.60;90.50;;;;;;10391711;28;20033;-87
2022/07/22 22:26:16;;;;;;;9.10;7.22;;;20.60;90.40;;;;;;10376909;28;20113;-85
2022/07/22 22:31:17;;;;;;;13.50;6.45;;;20.60;90.40;;;;;;10393344;28;20361;-86
2022/07/22 22:36:18;;;;;;;261.67;109.07;;;20.50;90.50;;;;;;10379806;28;20048;-87
2022/07/22 22:41:18;;;;;;;9.75;8.43;;;20.50;90.70;;;;;;10382312;28;20025;-85
2022/07/22 22:46:20;;;;;;;13.07;7.05;;;20.30;91.10;;;;;;10377551;28;20069;-86
2022/07/22 22:51:21;;;;;;;9.95;7.82;;;20.30;90.80;;;;;;10388413;28;20025;-86
2022/07/22 22:56:22;;;;;;;8.35;6.90;;;20.30;91.00;;;;;;10373155;28;20049;-86
2022/07/22 23:01:23;;;;;;;9.50;6.63;;;20.30;91.00;;;;;;10392814;28;20030;-87
2022/07/22 23:06:23;;;;;;;11.95;7.55;;;20.20;91.20;;;;;;10380555;28;20044;-87
2022/07/22 23:11:24;;;;;;;9.32;6.70;;;20.20;91.40;;;;;;10384473;28;20057;-87
2022/07/22 23:16:24;;;;;;;11.25;7.45;;;20.10;91.40;;;;;;10397355;28;20402;-87
2022/07/22 23:21:25;;;;;;;11.30;8.57;;;20.00;91.60;;;;;;10372095;28;20168;-86
2022/07/22 23:26:26;;;;;;;12.45;7.85;;;20.00;91.60;;;;;;10385012;28;20033;-87
2022/07/22 23:31:26;;;;;;;26.95;24.75;;;19.90;91.90;;;;;;10386032;28;20483;-86
2022/07/22 23:36:28;;;;;;;10.25;7.43;;;19.80;92.10;;;;;;10373917;28;20728;-86
2022/07/22 23:41:29;;;;;;;14.48;8.35;;;19.80;92.30;;;;;;10383354;28;20030;-86
2022/07/22 23:46:29;;;;;;;11.35;7.07;;;19.70;92.80;;;;;;10383257;28;20054;-86
2022/07/22 23:51:36;;;;;;;11.88;8.30;;;19.60;93.00;;;;;;10374113;28;20053;-87
2022/07/22 23:56:37;;;;;;;13.82;6.32;;;19.50;93.30;;;;;;10379319;28;20044;-87
